sensor_id;sensor_type;location;lat;lon;timestamp;temperature;humidity
64032;DHT22;50278;47.796;11.968;2023-02-15T00:01:28;-1.77;118.99
64032;DHT22;50278;47.796;11.968;2023-02-15T00:03:54;-1.76;118.99
64032;DHT22;50278;47.796;11.968;2023-02-15T00:06:20;-1.83;118.99
64032;DHT22;50278;47.796;11.968;2023-02-15T00:08:45;-1.77;118.99
64032;DHT22;50278;47.796;11.968;2023-02-15T00:11:14;-1.78;118.99
64032;DHT22;50278;47.796;11.968;2023-02-15T00:13:39;-1.88;118.99
64032;DHT22;50278;47.796;11.968;2023-02-15T00:16:10;-1.70;118.99
64032;DHT22;50278;47.796;11.968;2023-02-15T00:18:37;-1.63;118.99
64032;DHT22;50278;47.796;11.968;2023-02-15T00:21:06;-1.71;118.99
64032;DHT22;50278;47.796;11.968;2023-02-15T00:23:32;-1.62;118.99
64032;DHT22;50278;47.796;11.968;2023-02-15T00:26:09;-1.92;118.99
64032;DHT22;50278;47.796;11.968;2023-02-15T00:28:36;-1.98;118.99
64032;DHT22;50278;47.796;11.968;2023-02-15T00:31:11;-1.79;118.99
64032;DHT22;50278;47.796;11.968;2023-02-15T00:33:38;-1.83;118.99
64032;DHT22;50278;47.796;11.968;2023-02-15T00:36:06;-1.73;118.99
64032;DHT22;50278;47.796;11.968;2023-02-15T00:38:33;-1.67;118.99
64032;DHT22;50278;47.796;11.968;2023-02-15T00:41:01;-1.72;118.99
64032;DHT22;50278;47.796;11.968;2023-02-15T00:43:29;-1.68;118.99
64032;DHT22;50278;47.796;11.968;2023-02-15T00:45:55;-1.71;118.99
64032;DHT22;50278;47.796;11.968;2023-02-15T00:48:21;-1.83;118.99
64032;DHT22;50278;47.796;11.968;2023-02-15T00:50:50;-1.85;118.99
64032;DHT22;50278;47.796;11.968;2023-02-15T00:53:16;-2.01;118.99
64032;DHT22;50278;47.796;11.968;2023-02-15T00:55:41;-2.01;118.99
64032;DHT22;50278;47.796;11.968;2023-02-15T00:58:08;-2.13;118.99
64032;DHT22;50278;47.796;11.968;2023-02-15T01:00:33;-2.05;118.99
64032;DHT22;50278;47.796;11.968;2023-02-15T01:02:59;-2.00;118.99
64032;DHT22;50278;47.796;11.968;2023-02-15T01:05:25;-2.04;118.99
64032;DHT22;50278;47.796;11.968;2023-02-15T01:07:50;-2.12;118.99
64032;DHT22;50278;47.796;11.968;2023-02-15T01:10:16;-2.04;118.99
64032;DHT22;50278;47.796;11.968;2023-02-15T01:12:42;-2.13;118.99
64032;DHT22;50278;47.796;11.968;2023-02-15T01:15:08;-2.13;118.99
64032;DHT22;50278;47.796;11.968;2023-02-15T01:17:33;-2.02;118.99
64032;DHT22;50278;47.796;11.968;2023-02-15T01:19:59;-2.16;118.99
64032;DHT22;50278;47.796;11.968;2023-02-15T01:22:25;-2.13;118.99
64032;DHT22;50278;47.796;11.968;2023-02-15T01:24:50;-2.12;118.99
64032;DHT22;50278;47.796;11.968;2023-02-15T01:27:16;-2.08;118.99
64032;DHT22;50278;47.796;11.968;2023-02-15T01:29:42;-2.14;118.99
64032;DHT22;50278;47.796;11.968;2023-02-15T01:32:08;-2.17;118.99
64032;DHT22;50278;47.796;11.968;2023-02-15T01:34:33;-2.19;118.99
64032;DHT22;50278;47.796;11.968;2023-02-15T01:36:59;-2.12;118.99
64032;DHT22;50278;47.796;11.968;2023-02-15T01:39:25;-2.14;118.99
64032;DHT22;50278;47.796;11.968;2023-02-15T01:41:51;-2.15;118.99
64032;DHT22;50278;47.796;11.968;2023-02-15T01:47:09;-2.20;118.99
64032;DHT22;50278;47.796;11.968;2023-02-15T01:49:37;-2.09;118.99
64032;DHT22;50278;47.796;11.968;2023-02-15T01:52:07;-1.99;118.99
64032;DHT22;50278;47.796;11.968;2023-02-15T01:54:34;-2.15;118.99
64032;DHT22;50278;47.796;11.968;2023-02-15T01:57:06;-2.28;118.99
64032;DHT22;50278;47.796;11.968;2023-02-15T01:59:33;-2.27;118.99
64032;DHT22;50278;47.796;11.968;2023-02-15T02:02:01;-2.28;118.99
64032;DHT22;50278;47.796;11.968;2023-02-15T02:04:31;-2.27;118.99
64032;DHT22;50278;47.796;11.968;2023-02-15T02:06:59;-2.41;118.99
64032;DHT22;50278;47.796;11.968;2023-02-15T02:09:25;-2.43;118.99
64032;DHT22;50278;47.796;11.968;2023-02-15T02:11:51;-2.36;118.99
64032;DHT22;50278;47.796;11.968;2023-02-15T02:14:17;-2.35;118.99
64032;DHT22;50278;47.796;11.968;2023-02-15T02:16:54;-2.38;118.99
64032;DHT22;50278;47.796;11.968;2023-02-15T02:22:15;-2.24;118.99
64032;DHT22;50278;47.796;11.968;2023-02-15T02:27:31;-2.23;118.99
64032;DHT22;50278;47.796;11.968;2023-02-15T02:35:56;-2.52;118.99
64032;DHT22;50278;47.796;11.968;2023-02-15T02:44:18;-2.48;118.99
64032;DHT22;50278;47.796;11.968;2023-02-15T02:47:12;-2.46;118.99
64032;DHT22;50278;47.796;11.968;2023-02-15T02:49:42;-2.62;118.99
64032;DHT22;50278;47.796;11.968;2023-02-15T02:52:43;-2.60;118.99
64032;DHT22;50278;47.796;11.968;2023-02-15T02:55:37;-2.57;118.99
64032;DHT22;50278;47.796;11.968;2023-02-15T02:58:10;-2.60;118.99
64032;DHT22;50278;47.796;11.968;2023-02-15T03:00:40;-2.53;118.99
64032;DHT22;50278;47.796;11.968;2023-02-15T03:03:17;-2.63;118.99
64032;DHT22;50278;47.796;11.968;2023-02-15T03:05:47;-2.54;118.99
64032;DHT22;50278;47.796;11.968;2023-02-15T03:08:16;-2.54;118.99
64032;DHT22;50278;47.796;11.968;2023-02-15T03:10:51;-2.73;118.99
64032;DHT22;50278;47.796;11.968;2023-02-15T03:13:19;-2.62;118.99
64032;DHT22;50278;47.796;11.968;2023-02-15T03:15:47;-2.57;118.99
64032;DHT22;50278;47.796;11.968;2023-02-15T03:18:36;-2.59;118.99
64032;DHT22;50278;47.796;11.968;2023-02-15T03:21:04;-2.71;118.99
64032;DHT22;50278;47.796;11.968;2023-02-15T03:23:32;-2.65;118.99
64032;DHT22;50278;47.796;11.968;2023-02-15T03:26:05;-2.71;118.99
64032;DHT22;50278;47.796;11.968;2023-02-15T03:28:42;-2.77;118.99
64032;DHT22;50278;47.796;11.968;2023-02-15T03:31:11;-2.86;118.99
64032;DHT22;50278;47.796;11.968;2023-02-15T03:33:44;-2.89;118.99
64032;DHT22;50278;47.796;11.968;2023-02-15T03:36:41;-2.91;118.99
64032;DHT22;50278;47.796;11.968;2023-02-15T03:42:01;-3.11;118.99
64032;DHT22;50278;47.796;11.968;2023-02-15T03:44:32;-3.30;118.99
64032;DHT22;50278;47.796;11.968;2023-02-15T03:47:06;-3.19;118.99
64032;DHT22;50278;47.796;11.968;2023-02-15T03:49:54;-3.30;118.99
64032;DHT22;50278;47.796;11.968;2023-02-15T03:52:21;-3.30;118.99
64032;DHT22;50278;47.796;11.968;2023-02-15T03:54:49;-3.34;118.99
64032;DHT22;50278;47.796;11.968;2023-02-15T04:03:23;-3.53;118.99
64032;DHT22;50278;47.796;11.968;2023-02-15T04:05:51;-3.38;118.99
64032;DHT22;50278;47.796;11.968;2023-02-15T04:08:17;-3.35;118.99
64032;DHT22;50278;47.796;11.968;2023-02-15T04:10:43;-3.23;118.99
64032;DHT22;50278;47.796;11.968;2023-02-15T04:13:21;-3.31;118.99
64032;DHT22;50278;47.796;11.968;2023-02-15T04:15:48;-3.20;118.99
64032;DHT22;50278;47.796;11.968;2023-02-15T04:18:40;-3.10;118.99
64032;DHT22;50278;47.796;11.968;2023-02-15T04:21:26;-3.13;118.99
64032;DHT22;50278;47.796;11.968;2023-02-15T04:24:11;-3.04;118.99
64032;DHT22;50278;47.796;11.968;2023-02-15T04:26:55;-3.04;118.99
64032;DHT22;50278;47.796;11.968;2023-02-15T04:29:22;-3.08;118.99
64032;DHT22;50278;47.796;11.968;2023-02-15T04:31:49;-3.12;118.99
64032;DHT22;50278;47.796;11.968;2023-02-15T04:34:15;-3.21;118.99
64032;DHT22;50278;47.796;11.968;2023-02-15T04:36:41;-3.02;118.99
64032;DHT22;50278;47.796;11.968;2023-02-15T04:39:07;-3.08;118.99
64032;DHT22;50278;47.796;11.968;2023-02-15T04:41:34;-3.07;118.99
64032;DHT22;50278;47.796;11.968;2023-02-15T04:44:00;-3.09;118.99
64032;DHT22;50278;47.796;11.968;2023-02-15T04:46:26;-3.09;118.99
64032;DHT22;50278;47.796;11.968;2023-02-15T04:48:52;-3.10;118.99
64032;DHT22;50278;47.796;11.968;2023-02-15T04:51:18;-3.04;118.99
64032;DHT22;50278;47.796;11.968;2023-02-15T04:53:44;-3.11;118.99
64032;DHT22;50278;47.796;11.968;2023-02-15T04:56:09;-3.06;118.99
64032;DHT22;50278;47.796;11.968;2023-02-15T04:58:35;-3.15;118.99
64032;DHT22;50278;47.796;11.968;2023-02-15T05:01:02;-3.15;118.99
64032;DHT22;50278;47.796;11.968;2023-02-15T05:03:28;-3.06;118.99
64032;DHT22;50278;47.796;11.968;2023-02-15T05:05:54;-3.08;118.99
64032;DHT22;50278;47.796;11.968;2023-02-15T05:08:19;-2.98;118.99
64032;DHT22;50278;47.796;11.968;2023-02-15T05:10:47;-3.21;118.99
64032;DHT22;50278;47.796;11.968;2023-02-15T05:13:13;-2.96;118.99
64032;DHT22;50278;47.796;11.968;2023-02-15T05:15:39;-3.00;118.99
64032;DHT22;50278;47.796;11.968;2023-02-15T05:18:04;-2.96;118.99
64032;DHT22;50278;47.796;11.968;2023-02-15T05:20:31;-2.90;118.99
64032;DHT22;50278;47.796;11.968;2023-02-15T05:22:57;-2.80;118.99
64032;DHT22;50278;47.796;11.968;2023-02-15T05:25:22;-2.96;118.99
64032;DHT22;50278;47.796;11.968;2023-02-15T05:28:10;-2.86;118.99
64032;DHT22;50278;47.796;11.968;2023-02-15T05:30:45;-3.06;118.99
64032;DHT22;50278;47.796;11.968;2023-02-15T05:33:10;-3.18;118.99
64032;DHT22;50278;47.796;11.968;2023-02-15T05:35:36;-3.12;118.99
64032;DHT22;50278;47.796;11.968;2023-02-15T05:38:01;-3.10;118.99
64032;DHT22;50278;47.796;11.968;2023-02-15T05:40:27;-3.06;118.99
64032;DHT22;50278;47.796;11.968;2023-02-15T05:42:52;-3.00;118.99
64032;DHT22;50278;47.796;11.968;2023-02-15T05:45:18;-3.23;118.99
64032;DHT22;50278;47.796;11.968;2023-02-15T05:47:43;-3.32;118.99
64032;DHT22;50278;47.796;11.968;2023-02-15T05:50:10;-3.10;118.99
64032;DHT22;50278;47.796;11.968;2023-02-15T05:52:36;-3.00;118.99
64032;DHT22;50278;47.796;11.968;2023-02-15T05:55:02;-3.03;118.99
64032;DHT22;50278;47.796;11.968;2023-02-15T05:57:29;-2.98;118.99
64032;DHT22;50278;47.796;11.968;2023-02-15T05:59:55;-2.93;118.99
64032;DHT22;50278;47.796;11.968;2023-02-15T06:02:20;-3.02;118.99
64032;DHT22;50278;47.796;11.968;2023-02-15T06:04:46;-2.95;118.99
64032;DHT22;50278;47.796;11.968;2023-02-15T06:07:11;-2.89;118.99
64032;DHT22;50278;47.796;11.968;2023-02-15T06:09:37;-2.82;118.99
64032;DHT22;50278;47.796;11.968;2023-02-15T06:12:03;-2.75;118.99
64032;DHT22;50278;47.796;11.968;2023-02-15T06:14:28;-2.79;118.99
64032;DHT22;50278;47.796;11.968;2023-02-15T06:16:54;-2.80;118.99
64032;DHT22;50278;47.796;11.968;2023-02-15T06:19:19;-2.77;118.99
64032;DHT22;50278;47.796;11.968;2023-02-15T06:21:46;-2.93;118.99
64032;DHT22;50278;47.796;11.968;2023-02-15T06:24:12;-2.83;118.99
64032;DHT22;50278;47.796;11.968;2023-02-15T06:26:37;-2.95;118.99
64032;DHT22;50278;47.796;11.968;2023-02-15T06:29:03;-3.03;118.99
64032;DHT22;50278;47.796;11.968;2023-02-15T06:31:28;-3.25;118.99
64032;DHT22;50278;47.796;11.968;2023-02-15T06:33:54;-3.34;118.99
64032;DHT22;50278;47.796;11.968;2023-02-15T06:36:27;-3.52;118.99
64032;DHT22;50278;47.796;11.968;2023-02-15T06:38:54;-3.38;118.99
64032;DHT22;50278;47.796;11.968;2023-02-15T06:41:19;-3.28;118.99
64032;DHT22;50278;47.796;11.968;2023-02-15T06:43:45;-3.33;118.99
64032;DHT22;50278;47.796;11.968;2023-02-15T06:46:10;-3.26;118.99
64032;DHT22;50278;47.796;11.968;2023-02-15T06:48:36;-3.18;118.99
64032;DHT22;50278;47.796;11.968;2023-02-15T06:51:01;-3.01;118.99
64032;DHT22;50278;47.796;11.968;2023-02-15T06:53:27;-3.19;118.99
64032;DHT22;50278;47.796;11.968;2023-02-15T06:55:52;-3.19;118.99
64032;DHT22;50278;47.796;11.968;2023-02-15T06:58:18;-3.23;118.99
64032;DHT22;50278;47.796;11.968;2023-02-15T07:00:43;-3.33;118.99
64032;DHT22;50278;47.796;11.968;2023-02-15T07:03:09;-3.33;118.99
64032;DHT22;50278;47.796;11.968;2023-02-15T07:05:34;-3.22;118.99
64032;DHT22;50278;47.796;11.968;2023-02-15T07:08:00;-3.33;118.99
64032;DHT22;50278;47.796;11.968;2023-02-15T07:10:26;-3.32;118.99
64032;DHT22;50278;47.796;11.968;2023-02-15T07:12:52;-3.11;118.99
64032;DHT22;50278;47.796;11.968;2023-02-15T07:15:19;-3.10;118.99
64032;DHT22;50278;47.796;11.968;2023-02-15T07:17:46;-3.08;118.99
64032;DHT22;50278;47.796;11.968;2023-02-15T07:20:18;-3.03;118.99
64032;DHT22;50278;47.796;11.968;2023-02-15T07:22:44;-3.00;118.99
64032;DHT22;50278;47.796;11.968;2023-02-15T07:25:10;-2.91;118.99
64032;DHT22;50278;47.796;11.968;2023-02-15T07:27:36;-2.83;118.99
64032;DHT22;50278;47.796;11.968;2023-02-15T07:30:02;-2.73;118.99
64032;DHT22;50278;47.796;11.968;2023-02-15T07:32:29;-2.59;118.99
64032;DHT22;50278;47.796;11.968;2023-02-15T07:34:55;-2.66;118.99
64032;DHT22;50278;47.796;11.968;2023-02-15T07:37:20;-2.41;118.99
64032;DHT22;50278;47.796;11.968;2023-02-15T07:39:46;-2.38;118.99
64032;DHT22;50278;47.796;11.968;2023-02-15T07:42:11;-2.47;118.99
64032;DHT22;50278;47.796;11.968;2023-02-15T07:44:37;-2.37;118.99
64032;DHT22;50278;47.796;11.968;2023-02-15T07:47:03;-2.51;118.99
64032;DHT22;50278;47.796;11.968;2023-02-15T07:49:28;-2.35;118.99
64032;DHT22;50278;47.796;11.968;2023-02-15T07:51:54;-2.26;118.99
64032;DHT22;50278;47.796;11.968;2023-02-15T07:54:19;-2.29;118.99
64032;DHT22;50278;47.796;11.968;2023-02-15T07:56:45;-1.86;118.99
64032;DHT22;50278;47.796;11.968;2023-02-15T07:59:10;-1.93;118.99
64032;DHT22;50278;47.796;11.968;2023-02-15T08:01:38;-2.08;118.99
64032;DHT22;50278;47.796;11.968;2023-02-15T08:04:05;-1.84;118.99
64032;DHT22;50278;47.796;11.968;2023-02-15T08:06:33;-1.91;118.99
64032;DHT22;50278;47.796;11.968;2023-02-15T08:09:02;-2.06;118.99
64032;DHT22;50278;47.796;11.968;2023-02-15T08:11:30;-2.07;118.99
64032;DHT22;50278;47.796;11.968;2023-02-15T08:14:02;-1.79;118.99
64032;DHT22;50278;47.796;11.968;2023-02-15T08:16:33;-1.67;118.99
64032;DHT22;50278;47.796;11.968;2023-02-15T08:19:02;-1.70;118.99
64032;DHT22;50278;47.796;11.968;2023-02-15T08:21:29;-1.77;118.99
64032;DHT22;50278;47.796;11.968;2023-02-15T08:23:55;-1.61;118.99
64032;DHT22;50278;47.796;11.968;2023-02-15T08:26:22;-1.31;118.99
64032;DHT22;50278;47.796;11.968;2023-02-15T08:28:47;-1.12;118.99
64032;DHT22;50278;47.796;11.968;2023-02-15T08:31:14;-0.89;118.99
64032;DHT22;50278;47.796;11.968;2023-02-15T08:33:42;-0.57;118.99
64032;DHT22;50278;47.796;11.968;2023-02-15T08:36:10;-0.64;118.99
64032;DHT22;50278;47.796;11.968;2023-02-15T08:38:37;-0.82;118.99
64032;DHT22;50278;47.796;11.968;2023-02-15T08:41:17;-0.28;118.99
64032;DHT22;50278;47.796;11.968;2023-02-15T08:43:45;-0.39;118.99
64032;DHT22;50278;47.796;11.968;2023-02-15T08:46:12;-0.68;118.99
64032;DHT22;50278;47.796;11.968;2023-02-15T08:48:38;-0.80;118.99
64032;DHT22;50278;47.796;11.968;2023-02-15T08:51:08;-0.45;118.99
64032;DHT22;50278;47.796;11.968;2023-02-15T08:53:37;-0.69;118.99
64032;DHT22;50278;47.796;11.968;2023-02-15T08:56:03;-0.56;118.99
64032;DHT22;50278;47.796;11.968;2023-02-15T08:58:29;-0.47;118.99
64032;DHT22;50278;47.796;11.968;2023-02-15T09:00:56;0.04;118.99
64032;DHT22;50278;47.796;11.968;2023-02-15T09:03:21;0.21;118.99
64032;DHT22;50278;47.796;11.968;2023-02-15T09:05:47;0.39;113.67
64032;DHT22;50278;47.796;11.968;2023-02-15T09:08:12;0.10;118.99
64032;DHT22;50278;47.796;11.968;2023-02-15T09:10:38;0.34;118.76
64032;DHT22;50278;47.796;11.968;2023-02-15T09:13:03;0.16;116.53
64032;DHT22;50278;47.796;11.968;2023-02-15T09:15:29;0.16;117.54
64032;DHT22;50278;47.796;11.968;2023-02-15T09:17:54;0.14;114.16
64032;DHT22;50278;47.796;11.968;2023-02-15T09:20:20;0.20;111.50
64032;DHT22;50278;47.796;11.968;2023-02-15T09:22:46;0.16;112.82
64032;DHT22;50278;47.796;11.968;2023-02-15T09:25:11;0.19;118.99
64032;DHT22;50278;47.796;11.968;2023-02-15T09:27:39;0.42;118.99
64032;DHT22;50278;47.796;11.968;2023-02-15T09:30:05;0.77;117.34
64032;DHT22;50278;47.796;11.968;2023-02-15T09:32:31;1.20;110.20
64032;DHT22;50278;47.796;11.968;2023-02-15T09:34:57;1.19;108.25
64032;DHT22;50278;47.796;11.968;2023-02-15T09:37:22;1.16;107.63
64032;DHT22;50278;47.796;11.968;2023-02-15T09:39:48;0.86;110.39
64032;DHT22;50278;47.796;11.968;2023-02-15T09:48:03;1.64;98.00
64032;DHT22;50278;47.796;11.968;2023-02-15T09:51:49;1.52;102.35
64032;DHT22;50278;47.796;11.968;2023-02-15T09:54:14;1.54;96.99
64032;DHT22;50278;47.796;11.968;2023-02-15T09:56:57;1.95;98.26
64032;DHT22;50278;47.796;11.968;2023-02-15T10:10:48;2.21;92.40
64032;DHT22;50278;47.796;11.968;2023-02-15T10:13:44;2.25;92.31
64032;DHT22;50278;47.796;11.968;2023-02-15T10:16:20;2.28;94.60
64032;DHT22;50278;47.796;11.968;2023-02-15T10:24:29;2.87;86.37
64032;DHT22;50278;47.796;11.968;2023-02-15T10:27:13;3.05;84.39
64032;DHT22;50278;47.796;11.968;2023-02-15T10:29:47;2.65;86.65
64032;DHT22;50278;47.796;11.968;2023-02-15T10:32:25;2.23;87.43
64032;DHT22;50278;47.796;11.968;2023-02-15T10:35:11;2.46;86.60
64032;DHT22;50278;47.796;11.968;2023-02-15T10:37:53;2.45;86.46
64032;DHT22;50278;47.796;11.968;2023-02-15T10:40:40;2.67;89.11
64032;DHT22;50278;47.796;11.968;2023-02-15T10:45:56;2.85;89.49
64032;DHT22;50278;47.796;11.968;2023-02-15T10:50:57;2.78;86.59
64032;DHT22;50278;47.796;11.968;2023-02-15T11:04:53;3.14;89.47
64032;DHT22;50278;47.796;11.968;2023-02-15T11:07:27;3.40;87.97
64032;DHT22;50278;47.796;11.968;2023-02-15T11:10:12;3.42;88.28
64032;DHT22;50278;47.796;11.968;2023-02-15T11:12:45;3.48;86.12
64032;DHT22;50278;47.796;11.968;2023-02-15T11:16:11;3.69;82.52
64032;DHT22;50278;47.796;11.968;2023-02-15T11:18:39;3.61;83.77
64032;DHT22;50278;47.796;11.968;2023-02-15T11:21:30;3.64;82.38
64032;DHT22;50278;47.796;11.968;2023-02-15T11:23:59;3.85;80.40
64032;DHT22;50278;47.796;11.968;2023-02-15T11:26:33;3.90;84.62
64032;DHT22;50278;47.796;11.968;2023-02-15T11:29:07;4.09;82.32
64032;DHT22;50278;47.796;11.968;2023-02-15T11:31:53;4.41;81.75
64032;DHT22;50278;47.796;11.968;2023-02-15T11:34:30;4.96;75.28
64032;DHT22;50278;47.796;11.968;2023-02-15T11:37:08;5.07;74.48
64032;DHT22;50278;47.796;11.968;2023-02-15T11:39:35;5.65;71.19
64032;DHT22;50278;47.796;11.968;2023-02-15T11:42:16;6.58;65.28
64032;DHT22;50278;47.796;11.968;2023-02-15T11:47:25;7.02;57.30
64032;DHT22;50278;47.796;11.968;2023-02-15T11:49:50;7.23;50.75
64032;DHT22;50278;47.796;11.968;2023-02-15T11:52:17;7.15;51.62
64032;DHT22;50278;47.796;11.968;2023-02-15T11:54:47;7.70;49.62
64032;DHT22;50278;47.796;11.968;2023-02-15T11:57:17;8.01;45.60
64032;DHT22;50278;47.796;11.968;2023-02-15T11:59:53;8.27;45.61
64032;DHT22;50278;47.796;11.968;2023-02-15T12:02:21;8.41;41.21
64032;DHT22;50278;47.796;11.968;2023-02-15T12:04:58;9.46;36.97
64032;DHT22;50278;47.796;11.968;2023-02-15T12:07:46;9.91;35.87
64032;DHT22;50278;47.796;11.968;2023-02-15T12:12:43;10.73;27.56
64032;DHT22;50278;47.796;11.968;2023-02-15T12:15:11;11.49;25.41
64032;DHT22;50278;47.796;11.968;2023-02-15T12:17:48;11.12;25.81
64032;DHT22;50278;47.796;11.968;2023-02-15T12:22:46;11.13;26.01
64032;DHT22;50278;47.796;11.968;2023-02-15T12:25:37;11.25;24.72
64032;DHT22;50278;47.796;11.968;2023-02-15T12:28:20;11.48;23.94
64032;DHT22;50278;47.796;11.968;2023-02-15T12:30:47;12.13;20.41
64032;DHT22;50278;47.796;11.968;2023-02-15T12:33:45;12.46;16.26
64032;DHT22;50278;47.796;11.968;2023-02-15T12:36:22;12.48;15.45
64032;DHT22;50278;47.796;11.968;2023-02-15T12:41:48;12.67;12.81
64032;DHT22;50278;47.796;11.968;2023-02-15T12:44:27;12.87;12.85
64032;DHT22;50278;47.796;11.968;2023-02-15T12:47:25;12.93;10.43
64032;DHT22;50278;47.796;11.968;2023-02-15T12:52:31;13.77;9.67
64032;DHT22;50278;47.796;11.968;2023-02-15T12:55:10;11.87;14.21
64032;DHT22;50278;47.796;11.968;2023-02-15T12:57:36;13.00;11.15
64032;DHT22;50278;47.796;11.968;2023-02-15T13:00:27;13.24;9.07
64032;DHT22;50278;47.796;11.968;2023-02-15T13:02:58;13.48;7.47
64032;DHT22;50278;47.796;11.968;2023-02-15T13:05:34;13.50;7.66
64032;DHT22;50278;47.796;11.968;2023-02-15T13:08:14;13.29;7.51
64032;DHT22;50278;47.796;11.968;2023-02-15T13:10:57;13.48;6.01
64032;DHT22;50278;47.796;11.968;2023-02-15T13:13:56;13.77;5.67
64032;DHT22;50278;47.796;11.968;2023-02-15T13:16:35;14.58;5.35
64032;DHT22;50278;47.796;11.968;2023-02-15T13:19:05;14.00;5.57
64032;DHT22;50278;47.796;11.968;2023-02-15T13:21:36;12.86;8.01
64032;DHT22;50278;47.796;11.968;2023-02-15T13:24:24;13.34;7.91
64032;DHT22;50278;47.796;11.968;2023-02-15T13:26:52;13.80;7.22
64032;DHT22;50278;47.796;11.968;2023-02-15T13:29:25;13.51;8.02
64032;DHT22;50278;47.796;11.968;2023-02-15T13:31:52;14.45;5.75
64032;DHT22;50278;47.796;11.968;2023-02-15T13:34:29;13.86;4.80
64032;DHT22;50278;47.796;11.968;2023-02-15T13:37:15;14.43;4.49
64032;DHT22;50278;47.796;11.968;2023-02-15T13:40:04;14.65;2.65
64032;DHT22;50278;47.796;11.968;2023-02-15T13:42:40;15.24;2.55
64032;DHT22;50278;47.796;11.968;2023-02-15T13:50:54;14.64;1.89
64032;DHT22;50278;47.796;11.968;2023-02-15T13:53:51;14.57;2.83
64032;DHT22;50278;47.796;11.968;2023-02-15T14:05:21;0.00;0.00
64032;DHT22;50278;47.796;11.968;2023-02-15T14:08:09;0.00;0.00
64032;DHT22;50278;47.796;11.968;2023-02-15T14:10:38;0.00;0.00
64032;DHT22;50278;47.796;11.968;2023-02-15T14:16:13;0.00;0.00
64032;DHT22;50278;47.796;11.968;2023-02-15T14:21:31;16.41;-2.35
64032;DHT22;50278;47.796;11.968;2023-02-15T14:24:18;16.94;-3.83
64032;DHT22;50278;47.796;11.968;2023-02-15T14:32:04;16.57;-2.38
64032;DHT22;50278;47.796;11.968;2023-02-15T14:34:55;0.00;-5.34
64032;DHT22;50278;47.796;11.968;2023-02-15T14:37:42;16.65;-2.80
64032;DHT22;50278;47.796;11.968;2023-02-15T14:43:40;17.62;-6.00
64032;DHT22;50278;47.796;11.968;2023-02-15T14:48:49;17.30;-5.60
64032;DHT22;50278;47.796;11.968;2023-02-15T14:59:55;12.36;4.05
64032;DHT22;50278;47.796;11.968;2023-02-15T15:05:18;10.74;9.85
64032;DHT22;50278;47.796;11.968;2023-02-15T15:07:48;10.72;9.98
64032;DHT22;50278;47.796;11.968;2023-02-15T15:12:49;10.18;11.62
64032;DHT22;50278;47.796;11.968;2023-02-15T15:17:55;12.45;4.76
64032;DHT22;50278;47.796;11.968;2023-02-15T15:25:59;10.46;9.53
64032;DHT22;50278;47.796;11.968;2023-02-15T15:31:44;8.19;18.69
64032;DHT22;50278;47.796;11.968;2023-02-15T15:34:27;7.42;21.61
64032;DHT22;50278;47.796;11.968;2023-02-15T15:48:38;5.40;39.49
64032;DHT22;50278;47.796;11.968;2023-02-15T15:51:26;5.28;41.88
64032;DHT22;50278;47.796;11.968;2023-02-15T15:53:54;5.07;44.55
64032;DHT22;50278;47.796;11.968;2023-02-15T15:56:24;4.76;50.23
64032;DHT22;50278;47.796;11.968;2023-02-15T15:58:59;4.91;47.88
64032;DHT22;50278;47.796;11.968;2023-02-15T16:01:27;4.44;52.57
64032;DHT22;50278;47.796;11.968;2023-02-15T16:03:55;4.17;55.41
64032;DHT22;50278;47.796;11.968;2023-02-15T16:06:36;4.22;55.81
64032;DHT22;50278;47.796;11.968;2023-02-15T16:11:59;3.82;64.66
64032;DHT22;50278;47.796;11.968;2023-02-15T16:14:37;3.58;69.04
64032;DHT22;50278;47.796;11.968;2023-02-15T16:17:06;3.43;75.05
64032;DHT22;50278;47.796;11.968;2023-02-15T16:19:42;3.33;77.50
64032;DHT22;50278;47.796;11.968;2023-02-15T16:22:23;3.32;78.40
64032;DHT22;50278;47.796;11.968;2023-02-15T16:32:47;2.85;86.34
64032;DHT22;50278;47.796;11.968;2023-02-15T16:35:16;2.64;90.11
64032;DHT22;50278;47.796;11.968;2023-02-15T16:37:42;2.74;94.30
64032;DHT22;50278;47.796;11.968;2023-02-15T16:42:53;2.96;86.68
64032;DHT22;50278;47.796;11.968;2023-02-15T16:45:22;2.66;88.62
64032;DHT22;50278;47.796;11.968;2023-02-15T16:47:53;2.57;91.89
64032;DHT22;50278;47.796;11.968;2023-02-15T16:50:24;2.54;95.04
64032;DHT22;50278;47.796;11.968;2023-02-15T16:52:52;2.59;90.34
64032;DHT22;50278;47.796;11.968;2023-02-15T16:55:28;2.42;92.70
64032;DHT22;50278;47.796;11.968;2023-02-15T16:58:01;2.38;99.13
64032;DHT22;50278;47.796;11.968;2023-02-15T17:00:32;2.38;99.22
64032;DHT22;50278;47.796;11.968;2023-02-15T17:03:04;2.46;101.12
64032;DHT22;50278;47.796;11.968;2023-02-15T17:05:51;2.31;101.23
64032;DHT22;50278;47.796;11.968;2023-02-15T17:08:30;2.10;101.55
64032;DHT22;50278;47.796;11.968;2023-02-15T17:13:26;2.53;93.56
64032;DHT22;50278;47.796;11.968;2023-02-15T17:18:29;2.08;100.30
64032;DHT22;50278;47.796;11.968;2023-02-15T17:20:58;1.91;104.84
64032;DHT22;50278;47.796;11.968;2023-02-15T17:23:38;1.86;106.04
64032;DHT22;50278;47.796;11.968;2023-02-15T17:26:23;1.95;112.48
64032;DHT22;50278;47.796;11.968;2023-02-15T17:28:52;1.98;115.28
64032;DHT22;50278;47.796;11.968;2023-02-15T17:31:19;2.12;111.15
64032;DHT22;50278;47.796;11.968;2023-02-15T17:33:46;1.96;111.45
64032;DHT22;50278;47.796;11.968;2023-02-15T17:36:17;1.83;114.86
64032;DHT22;50278;47.796;11.968;2023-02-15T17:41:28;1.62;118.53
64032;DHT22;50278;47.796;11.968;2023-02-15T17:43:54;1.68;117.13
64032;DHT22;50278;47.796;11.968;2023-02-15T17:46:19;1.80;115.23
64032;DHT22;50278;47.796;11.968;2023-02-15T17:48:50;1.81;110.52
64032;DHT22;50278;47.796;11.968;2023-02-15T17:51:18;1.70;110.97
64032;DHT22;50278;47.796;11.968;2023-02-15T17:53:44;1.75;110.59
64032;DHT22;50278;47.796;11.968;2023-02-15T17:56:34;1.91;105.31
64032;DHT22;50278;47.796;11.968;2023-02-15T17:59:00;1.87;103.41
64032;DHT22;50278;47.796;11.968;2023-02-15T18:01:26;1.73;104.72
64032;DHT22;50278;47.796;11.968;2023-02-15T18:04:11;1.71;103.57
64032;DHT22;50278;47.796;11.968;2023-02-15T18:06:56;1.65;104.09
64032;DHT22;50278;47.796;11.968;2023-02-15T18:09:40;1.64;100.06
64032;DHT22;50278;47.796;11.968;2023-02-15T18:12:30;1.68;98.15
64032;DHT22;50278;47.796;11.968;2023-02-15T18:14:56;1.76;97.96
64032;DHT22;50278;47.796;11.968;2023-02-15T18:17:32;1.66;98.00
64032;DHT22;50278;47.796;11.968;2023-02-15T18:19:59;1.58;98.71
64032;DHT22;50278;47.796;11.968;2023-02-15T18:22:27;1.43;101.67
64032;DHT22;50278;47.796;11.968;2023-02-15T18:24:53;1.25;108.51
64032;DHT22;50278;47.796;11.968;2023-02-15T18:27:19;1.26;107.64
64032;DHT22;50278;47.796;11.968;2023-02-15T18:29:45;1.28;109.40